Time;durP1;ratioP1;P1;durP2;ratioP2;P2;SDS_P1;SDS_P2;PMS_P1;PMS_P2;Temp;Humidity;BMP_temperature;BMP_pressure;BME280_temperature;BME280_humidity;BME280_pressure;Samples;Min_cycle;Max_cycle;Signal;HPM_P1;HPM_P2
2021/12/02 00:00:55;;;;;;;1.33;1.05;;;0.60;99.90;;;;;;5074687;28;20025;-72
2021/12/02 00:03:21;;;;;;;6.30;1.25;;;0.50;99.90;;;;;;5075260;28;20095;-72
2021/12/02 00:05:47;;;;;;;1.40;0.88;;;0.60;99.90;;;;;;5075356;28;20021;-72
2021/12/02 00:08:13;;;;;;;8.60;1.00;;;0.50;99.90;;;;;;5075440;28;20472;-72
2021/12/02 00:10:40;;;;;;;2.53;1.15;;;0.60;99.90;;;;;;5074797;28;20033;-73
2021/12/02 00:13:07;;;;;;;6.15;1.30;;;0.60;99.90;;;;;;5075333;28;20021;-72
2021/12/02 00:15:41;;;;;;;10.13;1.00;;;0.60;99.90;;;;;;5075316;28;20020;-72
2021/12/02 00:23:28;;;;;;;8.13;1.30;;;0.60;99.90;;;;;;5074976;28;20048;-72
2021/12/02 00:25:56;;;;;;;2.92;1.08;;;0.60;99.90;;;;;;5074616;28;20155;-73
2021/12/02 00:28:24;;;;;;;16.92;1.48;;;0.50;99.90;;;;;;5073660;28;20103;-72
2021/12/02 00:30:50;;;;;;;2.00;0.82;;;0.50;99.90;;;;;;5074222;28;20142;-73
2021/12/02 00:33:16;;;;;;;4.30;1.00;;;0.50;99.90;;;;;;5094970;28;20426;-72
2021/12/02 00:35:43;;;;;;;5.43;1.42;;;0.50;99.90;;;;;;5094329;28;20581;-72
2021/12/02 00:38:10;;;;;;;4.43;1.20;;;0.50;99.90;;;;;;5077555;28;20047;-72
2021/12/02 00:40:35;;;;;;;4.32;0.88;;;0.50;99.90;;;;;;5080196;28;20024;-72
2021/12/02 00:43:01;;;;;;;9.45;1.33;;;0.50;99.90;;;;;;5094999;28;20031;-72
2021/12/02 00:45:27;;;;;;;4.47;1.30;;;0.50;99.90;;;;;;5094143;28;20387;-73
2021/12/02 00:47:53;;;;;;;5.10;1.33;;;0.50;99.90;;;;;;5094829;28;20070;-72
2021/12/02 00:50:19;;;;;;;6.90;0.82;;;0.60;99.90;;;;;;5094860;28;20106;-72
2021/12/02 00:52:49;;;;;;;2.85;1.35;;;0.60;99.90;;;;;;5078250;28;20033;-72
2021/12/02 00:55:15;;;;;;;2.15;0.90;;;0.60;99.90;;;;;;5074518;28;20020;-72
2021/12/02 00:57:42;;;;;;;3.83;0.98;;;0.60;99.90;;;;;;5072268;28;20086;-73
2021/12/02 01:00:08;;;;;;;5.13;0.93;;;0.60;99.90;;;;;;5074041;28;20086;-72
2021/12/02 01:02:35;;;;;;;3.35;1.30;;;0.60;99.90;;;;;;5074363;28;20046;-72
2021/12/02 01:05:01;;;;;;;2.28;1.02;;;0.60;99.90;;;;;;5074036;28;20024;-72
2021/12/02 01:07:26;;;;;;;2.78;1.08;;;0.60;99.90;;;;;;5073407;28;20017;-72
2021/12/02 01:09:52;;;;;;;3.85;1.42;;;0.60;99.90;;;;;;5073881;28;20111;-71
2021/12/02 01:12:18;;;;;;;2.65;1.30;;;0.70;99.90;;;;;;5073851;28;20052;-72
2021/12/02 01:14:45;;;;;;;6.55;1.33;;;0.70;99.90;;;;;;5073837;28;20020;-72
2021/12/02 01:17:10;;;;;;;1.73;0.93;;;0.70;99.90;;;;;;5073798;28;20028;-72
2021/12/02 01:19:36;;;;;;;2.47;1.05;;;0.70;99.90;;;;;;5073043;28;20438;-72
2021/12/02 01:22:03;;;;;;;6.88;1.20;;;0.70;99.90;;;;;;5073703;28;20028;-72
2021/12/02 01:24:30;;;;;;;8.13;1.42;;;0.80;99.90;;;;;;5073773;28;20480;-73
2021/12/02 01:26:57;;;;;;;1.85;0.85;;;0.70;99.90;;;;;;5073151;28;20024;-72
2021/12/02 01:29:24;;;;;;;4.40;1.27;;;0.80;99.90;;;;;;5073833;28;20109;-72
2021/12/02 01:31:53;;;;;;;6.43;1.05;;;0.70;99.90;;;;;;5073722;28;20063;-72
2021/12/02 01:34:27;;;;;;;4.10;0.88;;;0.80;99.90;;;;;;5073569;28;20024;-72
2021/12/02 01:36:54;;;;;;;5.15;0.85;;;0.80;99.90;;;;;;5073732;28;20386;-72
2021/12/02 01:39:21;;;;;;;3.88;1.00;;;0.80;99.90;;;;;;5072487;28;20066;-72
2021/12/02 01:41:50;;;;;;;5.63;1.38;;;0.80;99.90;;;;;;5081567;28;20024;-72
2021/12/02 01:44:19;;;;;;;4.63;1.42;;;0.80;99.90;;;;;;5074873;28;20090;-72
2021/12/02 01:46:48;;;;;;;12.80;1.75;;;0.80;99.90;;;;;;5075487;28;20016;-72
2021/12/02 01:49:13;;;;;;;2.63;0.98;;;0.80;99.90;;;;;;5093361;28;20031;-72
2021/12/02 01:52:00;;;;;;;2.42;1.10;;;0.80;99.90;;;;;;5083224;28;20454;-72
2021/12/02 01:54:27;;;;;;;5.88;1.25;;;0.80;99.90;;;;;;5073256;28;20036;-72
2021/12/02 01:57:09;;;;;;;6.35;1.35;;;0.80;99.90;;;;;;5075167;28;20020;-72
2021/12/02 01:59:38;;;;;;;6.70;1.25;;;0.70;99.90;;;;;;5073379;28;20024;-72
2021/12/02 02:02:09;;;;;;;10.27;1.80;;;0.70;99.90;;;;;;5079863;28;20025;-72
2021/12/02 02:04:35;;;;;;;11.02;1.63;;;0.70;99.90;;;;;;5071972;28;20066;-72
2021/12/02 02:07:13;;;;;;;26.80;2.70;;;0.70;99.90;;;;;;5076367;28;20034;-72
2021/12/02 02:09:38;;;;;;;8.73;1.67;;;0.70;99.90;;;;;;5093569;28;20028;-72
2021/12/02 02:12:07;;;;;;;7.97;1.80;;;0.70;99.90;;;;;;5092852;28;20034;-72
2021/12/02 02:14:34;;;;;;;14.43;1.33;;;0.70;99.90;;;;;;5093326;28;20032;-72
2021/12/02 02:17:01;;;;;;;5.85;1.83;;;0.70;99.90;;;;;;5093546;28;20020;-71
2021/12/02 02:19:32;;;;;;;7.65;1.67;;;0.60;99.90;;;;;;5075783;28;20033;-72
2021/12/02 02:21:58;;;;;;;15.82;1.75;;;0.60;99.90;;;;;;5072727;28;20431;-72
2021/12/02 02:24:24;;;;;;;13.48;1.38;;;0.60;99.90;;;;;;5073234;28;20028;-72
2021/12/02 02:26:50;;;;;;;5.30;1.63;;;0.60;99.90;;;;;;5073246;28;20024;-72
2021/12/02 02:29:18;;;;;;;15.98;2.35;;;0.60;99.90;;;;;;5073207;28;20064;-72
2021/12/02 02:31:44;;;;;;;9.07;2.13;;;0.60;99.90;;;;;;5074504;28;20158;-72
2021/12/02 02:34:10;;;;;;;14.05;1.45;;;0.60;99.90;;;;;;5072948;28;20025;-72
2021/12/02 02:36:40;;;;;;;11.45;1.75;;;0.60;99.90;;;;;;5085445;28;20031;-72
2021/12/02 02:39:06;;;;;;;11.02;2.65;;;0.60;99.90;;;;;;5091124;28;20035;-73
2021/12/02 02:41:37;;;;;;;6.97;1.92;;;0.50;99.90;;;;;;5073031;28;20388;-72
2021/12/02 02:44:04;;;;;;;7.05;1.80;;;0.50;99.90;;;;;;5072336;28;20028;-72
2021/12/02 02:46:35;;;;;;;12.85;1.80;;;0.60;99.90;;;;;;5090774;28;20021;-72
2021/12/02 02:49:04;;;;;;;9.23;2.38;;;0.70;99.90;;;;;;5092791;28;20032;-72
2021/12/02 02:51:31;;;;;;;10.60;2.40;;;0.60;99.90;;;;;;5079311;28;20086;-72
2021/12/02 02:54:03;;;;;;;16.85;3.35;;;0.60;99.90;;;;;;5076697;28;20028;-72
2021/12/02 02:56:31;;;;;;;15.20;2.53;;;0.70;99.90;;;;;;5076683;28;20495;-72
2021/12/02 03:01:48;;;;;;;9.50;1.85;;;0.60;99.90;;;;;;5083520;28;20380;-72
2021/12/02 03:07:04;;;;;;;11.25;1.98;;;0.60;99.90;;;;;;5096917;28;20024;-72
2021/12/02 03:12:16;;;;;;;7.82;1.92;;;0.60;99.90;;;;;;5096820;28;20024;-72
2021/12/02 03:17:11;;;;;;;7.57;1.63;;;0.60;99.90;;;;;;5076708;28;20066;-72
2021/12/02 03:19:43;;;;;;;9.63;2.17;;;0.60;99.90;;;;;;5077995;28;20430;-72
2021/12/02 03:22:10;;;;;;;22.08;2.70;;;0.60;99.90;;;;;;5075535;28;20562;-72
2021/12/02 03:24:36;;;;;;;15.27;2.67;;;0.50;99.90;;;;;;5086077;28;20107;-72
2021/12/02 03:27:02;;;;;;;9.90;1.88;;;0.50;99.90;;;;;;5075964;28;20124;-71
2021/12/02 03:29:28;;;;;;;13.30;2.30;;;0.50;99.90;;;;;;5075899;28;20025;-72
2021/12/02 03:31:53;;;;;;;25.27;3.15;;;0.50;99.90;;;;;;5095874;28;20081;-72
2021/12/02 03:34:20;;;;;;;9.52;2.40;;;0.50;99.90;;;;;;5095590;28;20024;-72
2021/12/02 03:36:45;;;;;;;18.08;2.50;;;0.50;99.90;;;;;;5091474;28;20488;-72
2021/12/02 03:39:12;;;;;;;12.38;1.92;;;0.50;99.90;;;;;;5095816;28;20084;-72
2021/12/02 03:41:39;;;;;;;18.85;2.42;;;0.50;99.90;;;;;;5074350;28;20020;-72
2021/12/02 03:44:05;;;;;;;19.52;2.90;;;0.50;99.90;;;;;;5075096;28;20028;-72
2021/12/02 03:46:31;;;;;;;25.77;3.80;;;0.50;99.90;;;;;;5075605;28;20033;-72
2021/12/02 03:48:58;;;;;;;16.02;2.42;;;0.60;99.90;;;;;;5075508;28;20133;-72
2021/12/02 03:51:24;;;;;;;10.52;2.15;;;0.50;99.90;;;;;;5075555;28;20039;-72
2021/12/02 03:53:50;;;;;;;12.57;2.38;;;0.60;99.90;;;;;;5075967;28;20024;-72
2021/12/02 03:56:16;;;;;;;8.45;1.60;;;0.60;99.90;;;;;;5088579;28;20028;-72
2021/12/02 03:58:43;;;;;;;18.05;2.65;;;0.70;99.90;;;;;;5095062;28;20031;-72
2021/12/02 04:01:10;;;;;;;15.90;2.72;;;0.70;99.90;;;;;;5072610;28;20048;-72
2021/12/02 04:03:36;;;;;;;14.75;2.00;;;0.70;99.90;;;;;;5056644;28;20021;-72
2021/12/02 04:06:02;;;;;;;18.02;2.47;;;0.70;99.90;;;;;;5075506;28;20040;-72
2021/12/02 04:08:38;;;;;;;15.82;3.08;;;0.80;99.90;;;;;;5095243;28;20020;-72
2021/12/02 04:16:54;;;;;;;15.45;2.83;;;0.80;99.90;;;;;;5012631;28;20069;-72
2021/12/02 04:19:21;;;;;;;17.33;2.40;;;0.80;99.90;;;;;;5063676;28;20380;-72
2021/12/02 04:21:46;;;;;;;12.10;2.00;;;0.80;99.90;;;;;;5057024;28;20020;-72
2021/12/02 04:24:12;;;;;;;18.25;2.50;;;0.90;99.90;;;;;;5074892;28;20032;-72
2021/12/02 04:26:40;;;;;;;9.25;1.55;;;0.80;99.90;;;;;;5074391;28;20025;-72
2021/12/02 04:29:05;;;;;;;15.35;2.60;;;0.80;99.90;;;;;;5074730;28;20070;-72
2021/12/02 04:31:31;;;;;;;19.00;2.85;;;0.70;99.90;;;;;;5056786;28;20029;-72
2021/12/02 04:33:56;;;;;;;13.60;2.83;;;0.80;99.90;;;;;;5087674;28;20032;-72
2021/12/02 04:36:22;;;;;;;15.43;2.63;;;0.70;99.90;;;;;;5083281;28;20024;-72
2021/12/02 04:38:47;;;;;;;15.85;3.92;;;0.70;99.90;;;;;;5056029;28;20031;-72
2021/12/02 04:41:15;;;;;;;12.77;2.25;;;0.80;99.90;;;;;;5075349;28;20123;-72
2021/12/02 04:43:41;;;;;;;14.68;3.08;;;0.70;99.90;;;;;;5074654;28;20021;-72
2021/12/02 04:46:07;;;;;;;10.52;1.77;;;0.70;99.90;;;;;;5058685;28;20024;-72
2021/12/02 04:48:32;;;;;;;24.02;4.50;;;0.70;99.90;;;;;;5074532;28;20436;-72
2021/12/02 04:50:58;;;;;;;14.32;3.88;;;0.80;99.90;;;;;;5073806;28;20055;-72
2021/12/02 04:53:23;;;;;;;17.30;2.00;;;0.80;99.90;;;;;;5090085;28;20501;-72
2021/12/02 04:55:49;;;;;;;17.55;3.03;;;0.80;99.90;;;;;;5080324;28;20029;-72
2021/12/02 04:58:14;;;;;;;20.17;3.10;;;0.80;99.90;;;;;;5074026;28;20025;-72
2021/12/02 05:00:40;;;;;;;13.80;3.35;;;0.80;99.90;;;;;;5055884;28;20048;-72
2021/12/02 05:03:05;;;;;;;24.58;4.18;;;0.80;99.90;;;;;;5077263;28;20448;-72
2021/12/02 05:05:33;;;;;;;22.48;3.70;;;0.80;99.90;;;;;;5076773;28;20032;-71
2021/12/02 05:08:00;;;;;;;23.00;3.40;;;0.80;99.90;;;;;;5074181;28;20012;-72
2021/12/02 05:10:26;;;;;;;19.30;2.70;;;0.80;99.90;;;;;;5086779;28;20024;-72
2021/12/02 05:12:52;;;;;;;15.13;2.33;;;0.80;99.90;;;;;;5076014;28;20030;-72
2021/12/02 05:15:17;;;;;;;11.70;2.63;;;0.90;99.90;;;;;;5089785;28;20107;-72
2021/12/02 05:17:43;;;;;;;10.05;2.53;;;0.90;99.90;;;;;;5074583;28;20479;-72
2021/12/02 05:20:09;;;;;;;15.57;2.38;;;0.80;99.90;;;;;;5103030;23;20131;-67
2021/12/02 05:22:35;;;;;;;12.75;2.35;;;0.70;99.90;;;;;;5093727;28;20052;-67
2021/12/02 05:25:00;;;;;;;15.80;2.20;;;0.70;99.90;;;;;;5093929;28;20039;-67
2021/12/02 05:27:26;;;;;;;15.65;3.10;;;0.60;99.90;;;;;;5093919;28;20024;-67
2021/12/02 05:29:51;;;;;;;14.57;3.47;;;0.60;99.90;;;;;;5089636;28;20107;-67
2021/12/02 05:32:17;;;;;;;13.60;3.17;;;0.70;99.90;;;;;;5073086;28;20059;-67
2021/12/02 05:34:47;;;;;;;19.67;2.95;;;0.70;99.90;;;;;;5073846;28;20395;-67
2021/12/02 05:37:13;;;;;;;16.08;2.30;;;0.60;99.90;;;;;;5091531;28;20016;-67
2021/12/02 05:39:38;;;;;;;17.08;4.20;;;0.60;99.90;;;;;;5090809;28;20039;-67
2021/12/02 05:42:04;;;;;;;22.80;3.17;;;0.50;99.90;;;;;;5093929;28;20036;-67
2021/12/02 05:44:30;;;;;;;9.93;2.20;;;0.40;99.90;;;;;;5090848;28;20047;-67
2021/12/02 05:46:55;;;;;;;25.88;2.95;;;0.40;99.90;;;;;;5073396;28;20419;-67
2021/12/02 05:49:21;;;;;;;13.82;2.22;;;0.50;99.90;;;;;;5073283;28;20499;-67
2021/12/02 05:51:46;;;;;;;28.10;2.50;;;0.50;99.90;;;;;;5089539;28;20396;-67
2021/12/02 05:54:12;;;;;;;17.85;3.10;;;0.50;99.90;;;;;;5093140;28;20027;-67
2021/12/02 05:56:39;;;;;;;14.18;3.17;;;0.50;99.90;;;;;;5083583;28;20398;-67
2021/12/02 05:59:05;;;;;;;9.68;2.42;;;0.50;99.90;;;;;;5073332;28;20108;-67
2021/12/02 06:01:30;;;;;;;22.83;2.90;;;0.50;99.90;;;;;;5080028;28;20534;-67
2021/12/02 06:03:56;;;;;;;13.68;2.97;;;0.40;99.90;;;;;;5092913;28;20106;-67
2021/12/02 06:06:25;;;;;;;13.73;2.50;;;0.50;99.90;;;;;;5089584;28;20142;-67
2021/12/02 06:08:50;;;;;;;16.17;3.00;;;0.50;99.90;;;;;;5073290;28;20399;-67
2021/12/02 06:11:16;;;;;;;18.25;2.92;;;0.40;99.90;;;;;;5073102;28;20024;-67
2021/12/02 06:13:42;;;;;;;11.02;2.53;;;0.40;99.90;;;;;;5092092;28;20028;-67
2021/12/02 06:16:08;;;;;;;10.18;2.50;;;0.50;99.90;;;;;;5093575;28;20035;-67
2021/12/02 06:18:34;;;;;;;19.25;2.58;;;0.40;99.90;;;;;;5080622;28;20032;-67
2021/12/02 06:20:59;;;;;;;20.20;3.00;;;0.40;99.90;;;;;;5073618;28;20032;-67
2021/12/02 06:23:25;;;;;;;21.75;2.35;;;0.40;99.90;;;;;;5078067;28;20024;-66
2021/12/02 06:25:50;;;;;;;19.05;3.05;;;0.30;99.90;;;;;;5093256;28;20097;-67
2021/12/02 06:28:17;;;;;;;24.90;3.85;;;0.30;99.90;;;;;;5087674;28;20099;-67
2021/12/02 06:30:44;;;;;;;19.52;3.85;;;0.30;99.90;;;;;;5076968;28;20021;-67
2021/12/02 06:33:10;;;;;;;9.95;2.53;;;0.30;99.90;;;;;;5077004;28;20016;-67
2021/12/02 06:35:36;;;;;;;9.52;2.13;;;0.30;99.90;;;;;;5076372;28;20016;-67
2021/12/02 06:38:02;;;;;;;13.30;2.83;;;0.30;99.90;;;;;;5079198;28;20032;-67
2021/12/02 06:40:28;;;;;;;21.95;4.88;;;0.30;99.90;;;;;;5086541;28;20032;-67
2021/12/02 06:42:54;;;;;;;8.10;2.92;;;0.30;99.90;;;;;;5097050;28;20095;-67
2021/12/02 06:45:20;;;;;;;12.05;2.33;;;0.30;99.90;;;;;;5091886;28;20111;-67
2021/12/02 06:47:47;;;;;;;19.67;3.20;;;0.30;99.90;;;;;;5097002;28;20107;-67
2021/12/02 06:50:17;;;;;;;28.02;4.82;;;0.30;99.90;;;;;;5096871;28;20095;-67
2021/12/02 06:52:44;;;;;;;27.70;2.55;;;0.30;99.90;;;;;;5097163;28;20028;-67
2021/12/02 06:55:10;;;;;;;13.73;2.15;;;0.30;99.90;;;;;;5097107;28;20028;-67
2021/12/02 06:57:37;;;;;;;12.50;2.58;;;0.30;99.90;;;;;;5076378;28;20032;-67
2021/12/02 07:00:08;;;;;;;15.63;3.03;;;0.30;99.90;;;;;;5076296;28;20495;-67
2021/12/02 07:02:34;;;;;;;17.48;2.95;;;0.40;99.90;;;;;;5078729;28;20059;-67
2021/12/02 07:05:01;;;;;;;15.02;2.42;;;0.30;99.90;;;;;;5085434;28;20054;-66
2021/12/02 07:07:31;;;;;;;14.90;2.72;;;0.40;99.90;;;;;;5096593;28;20020;-67
2021/12/02 07:09:58;;;;;;;19.50;5.25;;;0.40;99.90;;;;;;5096411;28;20479;-67
2021/12/02 07:12:29;;;;;;;16.90;2.80;;;0.50;99.90;;;;;;5095927;28;20032;-67
2021/12/02 07:14:55;;;;;;;11.30;2.90;;;0.50;99.90;;;;;;5094315;28;20504;-67
2021/12/02 07:17:20;;;;;;;14.38;2.42;;;0.50;99.90;;;;;;5076106;28;20036;-67
2021/12/02 07:19:46;;;;;;;16.90;3.28;;;0.40;99.90;;;;;;5075829;28;20024;-67
2021/12/02 07:22:11;;;;;;;10.05;2.47;;;0.30;99.90;;;;;;5076059;28;20054;-67
2021/12/02 07:24:37;;;;;;;18.25;3.05;;;0.30;99.90;;;;;;5076262;28;20052;-67
2021/12/02 07:27:03;;;;;;;14.27;3.05;;;0.30;99.90;;;;;;5075398;28;20029;-67
2021/12/02 07:29:29;;;;;;;18.60;2.60;;;0.30;99.90;;;;;;5078354;28;20024;-67
2021/12/02 07:31:55;;;;;;;13.68;2.70;;;0.30;99.90;;;;;;5078066;28;20060;-67
2021/12/02 07:34:23;;;;;;;35.42;3.40;;;0.30;99.90;;;;;;5075836;28;20039;-67
2021/12/02 07:36:51;;;;;;;10.75;2.45;;;0.30;99.90;;;;;;5088538;28;20038;-67
2021/12/02 07:39:17;;;;;;;7.30;2.00;;;0.20;99.90;;;;;;5095883;28;20020;-67
2021/12/02 07:41:43;;;;;;;19.00;4.60;;;0.20;99.90;;;;;;5084630;28;20020;-67
2021/12/02 07:44:11;;;;;;;25.52;3.03;;;0.20;99.90;;;;;;5089833;28;20031;-67
2021/12/02 07:46:36;;;;;;;46.40;5.47;;;0.10;99.90;;;;;;5087183;28;20078;-67
2021/12/02 07:49:02;;;;;;;25.75;3.92;;;0.20;99.90;;;;;;5075805;28;20056;-67
2021/12/02 07:51:34;;;;;;;10.30;2.53;;;0.20;99.90;;;;;;5077603;28;20530;-67
2021/12/02 07:54:01;;;;;;;13.90;2.28;;;0.20;99.90;;;;;;5095721;28;20073;-67
2021/12/02 07:56:29;;;;;;;8.93;2.50;;;0.20;99.90;;;;;;5077431;28;20017;-67
2021/12/02 07:58:54;;;;;;;27.48;3.45;;;0.20;99.90;;;;;;5075253;28;20399;-67
2021/12/02 08:01:20;;;;;;;14.15;2.40;;;0.30;99.90;;;;;;5074758;28;20024;-67
2021/12/02 08:03:47;;;;;;;16.50;2.30;;;0.40;99.90;;;;;;5075327;28;20434;-67
2021/12/02 08:06:15;;;;;;;16.38;2.13;;;0.40;99.90;;;;;;5075226;28;20017;-67
2021/12/02 08:08:42;;;;;;;16.92;2.72;;;0.40;99.90;;;;;;5075182;28;20021;-67
2021/12/02 08:11:11;;;;;;;15.75;2.85;;;0.40;99.90;;;;;;5075147;28;20060;-67
2021/12/02 08:13:37;;;;;;;14.20;2.80;;;0.40;99.90;;;;;;5074611;28;20020;-67
2021/12/02 08:16:04;;;;;;;5.78;2.47;;;0.50;99.90;;;;;;5075369;28;20032;-67
2021/12/02 08:18:30;;;;;;;16.05;3.45;;;0.50;99.90;;;;;;5085807;28;20032;-66
2021/12/02 08:20:57;;;;;;;9.57;2.35;;;0.60;99.90;;;;;;5094737;28;20051;-67
2021/12/02 08:23:22;;;;;;;8.85;2.05;;;0.60;99.90;;;;;;5090582;28;20028;-67
2021/12/02 08:25:48;;;;;;;17.98;2.83;;;0.60;99.90;;;;;;5085441;28;20021;-67
2021/12/02 08:28:15;;;;;;;22.30;4.93;;;0.60;99.90;;;;;;5074541;28;20021;-67
2021/12/02 08:30:40;;;;;;;13.40;2.40;;;0.70;99.90;;;;;;5076921;28;20072;-66
2021/12/02 08:33:08;;;;;;;12.75;1.98;;;0.70;99.90;;;;;;5075290;28;20036;-67
2021/12/02 08:35:34;;;;;;;24.85;2.63;;;0.80;99.90;;;;;;5074992;28;20021;-67
2021/12/02 08:38:05;;;;;;;6.78;2.35;;;0.80;99.90;;;;;;5089555;28;20483;-66
2021/12/02 08:40:35;;;;;;;7.53;2.10;;;0.90;99.90;;;;;;5079660;28;20488;-67
2021/12/02 08:43:03;;;;;;;18.05;2.28;;;0.90;99.90;;;;;;5073209;28;20055;-67
2021/12/02 08:45:30;;;;;;;12.63;2.67;;;1.00;99.90;;;;;;5084550;28;20028;-67
2021/12/02 08:47:56;;;;;;;21.35;3.67;;;1.10;99.90;;;;;;5094619;28;20024;-67
2021/12/02 08:50:22;;;;;;;15.93;2.60;;;1.10;99.90;;;;;;5093617;28;20042;-67
2021/12/02 08:52:50;;;;;;;11.07;1.80;;;1.10;99.90;;;;;;5094097;28;20461;-67
2021/12/02 08:55:17;;;;;;;11.57;1.75;;;1.10;99.90;;;;;;5093506;28;20120;-70
2021/12/02 08:57:43;;;;;;;13.05;2.65;;;1.20;99.90;;;;;;5074499;28;20034;-68
2021/12/02 09:00:12;;;;;;;21.27;2.58;;;1.30;99.90;;;;;;5074089;28;20025;-68
2021/12/02 09:02:38;;;;;;;12.13;2.60;;;1.30;99.90;;;;;;5080320;28;20454;-67
2021/12/02 09:05:05;;;;;;;13.45;3.05;;;1.30;99.90;;;;;;5076186;28;20025;-67
2021/12/02 09:07:32;;;;;;;16.48;2.95;;;1.40;99.90;;;;;;5074059;28;20095;-67
2021/12/02 09:09:57;;;;;;;6.88;1.73;;;1.40;99.90;;;;;;5081244;28;20036;-67
2021/12/02 09:12:23;;;;;;;15.98;2.45;;;1.40;99.90;;;;;;5093660;28;20387;-67
2021/12/02 09:14:50;;;;;;;13.60;2.53;;;1.40;99.90;;;;;;5094120;28;20472;-67
2021/12/02 09:17:15;;;;;;;7.60;1.75;;;1.40;99.90;;;;;;5075533;28;20028;-67
2021/12/02 09:19:41;;;;;;;8.68;2.10;;;1.30;99.90;;;;;;5073544;28;20044;-67
2021/12/02 09:22:07;;;;;;;14.55;2.20;;;1.40;99.90;;;;;;5073968;28;20054;-67
2021/12/02 09:24:32;;;;;;;13.02;2.20;;;1.40;99.90;;;;;;5074007;28;20483;-67
2021/12/02 09:26:58;;;;;;;8.68;2.30;;;1.40;99.90;;;;;;5073505;28;20111;-67
2021/12/02 09:29:24;;;;;;;18.90;3.00;;;1.40;99.90;;;;;;5073521;28;20060;-67
2021/12/02 09:31:51;;;;;;;18.60;2.13;;;1.40;99.90;;;;;;5073808;28;20017;-67
2021/12/02 09:34:17;;;;;;;9.25;2.20;;;1.40;99.90;;;;;;5073572;28;20391;-67
2021/12/02 09:36:44;;;;;;;10.93;1.70;;;1.50;99.90;;;;;;5073883;28;20376;-67
2021/12/02 09:39:11;;;;;;;18.23;2.05;;;1.60;99.90;;;;;;5073628;28;20029;-67
2021/12/02 09:41:37;;;;;;;27.15;2.38;;;1.60;99.90;;;;;;5072962;28;20033;-67
2021/12/02 09:44:03;;;;;;;7.10;1.58;;;1.70;99.90;;;;;;5073442;28;20084;-67
2021/12/02 09:46:30;;;;;;;12.15;2.78;;;1.80;99.90;;;;;;5073513;28;20027;-67
2021/12/02 09:48:57;;;;;;;9.48;1.70;;;1.90;99.90;;;;;;5073330;28;20032;-68
2021/12/02 09:51:29;;;;;;;9.90;2.05;;;1.90;99.90;;;;;;5072113;28;20025;-68
2021/12/02 09:54:04;;;;;;;45.15;3.13;;;2.00;99.90;;;;;;5073115;28;20036;-67
2021/12/02 09:56:33;;;;;;;12.57;3.03;;;2.10;99.90;;;;;;5073480;28;20025;-68
2021/12/02 09:59:09;;;;;;;8.80;1.70;;;2.20;99.90;;;;;;5073125;28;20514;-68
2021/12/02 10:01:41;;;;;;;11.25;2.65;;;2.30;99.90;;;;;;5072649;28;20065;-67
2021/12/02 10:04:09;;;;;;;14.85;2.60;;;2.40;99.90;;;;;;5073519;28;20108;-68
2021/12/02 10:06:35;;;;;;;11.15;2.22;;;2.50;99.90;;;;;;5074529;28;20506;-67
2021/12/02 10:09:12;;;;;;;17.85;2.50;;;2.50;99.90;;;;;;5073820;28;20037;-68
2021/12/02 10:11:50;;;;;;;24.50;2.10;;;2.60;99.90;;;;;;5073185;28;20100;-68
2021/12/02 10:14:22;;;;;;;14.40;2.20;;;2.60;99.90;;;;;;5090674;28;20502;-67
2021/12/02 10:16:51;;;;;;;11.98;2.53;;;2.70;99.90;;;;;;5092066;28;20035;-68
2021/12/02 10:19:20;;;;;;;11.48;2.00;;;2.70;99.90;;;;;;5092967;28;20027;-68
2021/12/02 10:24:16;;;;;;;12.00;1.92;;;2.80;99.90;;;;;;5082330;28;20362;-67
2021/12/02 10:26:51;;;;;;;15.95;2.42;;;2.80;99.90;;;;;;5092051;28;20032;-67
2021/12/02 10:29:27;;;;;;;11.65;1.90;;;2.70;99.90;;;;;;5092849;28;20020;-67
2021/12/02 10:32:16;;;;;;;9.50;2.15;;;2.60;99.90;;;;;;5073207;28;20395;-67
2021/12/02 10:34:52;;;;;;;11.63;2.65;;;2.60;99.90;;;;;;5072517;28;20403;-67
2021/12/02 10:37:19;;;;;;;15.85;2.90;;;2.50;99.90;;;;;;5093393;28;20024;-67
2021/12/02 10:40:00;;;;;;;14.85;2.22;;;2.50;99.90;;;;;;5090904;28;20081;-67
2021/12/02 10:42:26;;;;;;;9.13;2.13;;;2.40;99.90;;;;;;5073189;28;20387;-67
2021/12/02 10:44:54;;;;;;;15.68;2.35;;;2.40;99.90;;;;;;5072425;28;20104;-68
2021/12/02 10:47:21;;;;;;;12.57;2.17;;;2.40;99.90;;;;;;5072773;28;20025;-68
2021/12/02 10:49:51;;;;;;;9.60;2.30;;;2.40;99.90;;;;;;5072973;28;20028;-67
2021/12/02 10:52:22;;;;;;;16.13;2.72;;;2.40;99.90;;;;;;5075252;28;20028;-67
2021/12/02 10:54:51;;;;;;;12.40;1.95;;;2.30;99.90;;;;;;5072924;28;20492;-68
2021/12/02 10:57:22;;;;;;;8.20;1.90;;;2.30;99.90;;;;;;5082472;28;20107;-67
2021/12/02 10:59:50;;;;;;;13.70;2.13;;;2.20;99.90;;;;;;5092267;28;20056;-68
2021/12/02 11:02:17;;;;;;;7.05;1.70;;;2.20;99.90;;;;;;5090643;28;20035;-68
2021/12/02 11:04:49;;;;;;;10.35;1.67;;;2.20;99.90;;;;;;5092819;28;20039;-68
2021/12/02 11:07:24;;;;;;;14.20;1.63;;;2.20;99.90;;;;;;5088622;28;20032;-68
2021/12/02 11:09:51;;;;;;;19.25;1.90;;;2.10;99.90;;;;;;5092809;28;20016;-67
2021/12/02 11:12:26;;;;;;;17.92;2.65;;;2.20;99.90;;;;;;5087132;28;20055;-67
2021/12/02 11:15:01;;;;;;;23.33;2.25;;;2.20;99.90;;;;;;5076519;28;20119;-67
2021/12/02 11:17:32;;;;;;;14.57;1.65;;;2.10;99.90;;;;;;5076511;28;20416;-68
2021/12/02 11:20:05;;;;;;;10.95;1.50;;;2.20;99.90;;;;;;5107753;22;20453;-72
2021/12/02 11:22:30;;;;;;;17.92;2.70;;;2.20;99.90;;;;;;5095896;28;20016;-72
2021/12/02 11:24:58;;;;;;;10.77;2.25;;;2.20;99.90;;;;;;5096877;28;20528;-72
2021/12/02 11:27:51;;;;;;;5.38;1.58;;;2.30;99.90;;;;;;5092069;28;20031;-72
2021/12/02 11:30:23;;;;;;;14.15;2.40;;;2.30;99.90;;;;;;5082003;28;20107;-73
2021/12/02 11:32:57;;;;;;;12.93;1.77;;;2.40;99.90;;;;;;5081509;28;20027;-72
2021/12/02 11:35:39;;;;;;;6.30;1.77;;;2.50;99.90;;;;;;5085834;28;20034;-73
2021/12/02 11:38:23;;;;;;;15.15;2.40;;;2.50;99.90;;;;;;5080992;28;20021;-71
2021/12/02 11:40:55;;;;;;;18.50;3.00;;;2.50;99.90;;;;;;5067056;28;20047;-71
2021/12/02 11:43:38;;;;;;;9.02;1.90;;;2.50;99.90;;;;;;5086067;28;20016;-72
2021/12/02 11:46:09;;;;;;;13.83;1.53;;;2.40;99.90;;;;;;5082054;28;20026;-73
2021/12/02 11:48:38;;;;;;;10.88;2.83;;;2.40;99.90;;;;;;5084252;28;20361;-73
2021/12/02 11:51:09;;;;;;;8.80;1.95;;;2.40;99.90;;;;;;5083646;28;20395;-72
2021/12/02 11:53:34;;;;;;;6.75;1.73;;;2.30;99.90;;;;;;5083656;28;20012;-74
2021/12/02 11:56:03;;;;;;;33.10;2.88;;;2.30;99.90;;;;;;5076386;28;20036;-71
2021/12/02 11:58:29;;;;;;;17.80;3.05;;;2.30;99.90;;;;;;5074294;28;20525;-72
2021/12/02 12:00:55;;;;;;;12.30;2.10;;;2.30;99.90;;;;;;5073839;28;20043;-72
2021/12/02 12:03:36;;;;;;;13.07;1.73;;;2.30;99.90;;;;;;5074717;28;20058;-72
2021/12/02 12:06:04;;;;;;;19.58;2.58;;;2.40;99.90;;;;;;5075452;28;20028;-71
2021/12/02 12:08:36;;;;;;;6.63;1.77;;;2.50;99.90;;;;;;5075230;28;20033;-71
2021/12/02 12:11:25;;;;;;;12.18;2.13;;;2.50;99.90;;;;;;5075054;28;20059;-72
2021/12/02 12:14:04;;;;;;;8.98;1.88;;;2.60;99.90;;;;;;5074551;28;20029;-71
2021/12/02 12:16:30;;;;;;;13.57;2.65;;;2.60;99.90;;;;;;5075086;28;20063;-71
2021/12/02 12:19:14;;;;;;;7.20;2.10;;;2.50;99.90;;;;;;5074651;28;20028;-71
2021/12/02 12:21:44;;;;;;;8.02;1.45;;;2.50;99.90;;;;;;5075278;28;20433;-72
2021/12/02 12:24:10;;;;;;;14.60;2.03;;;2.50;99.90;;;;;;5074753;28;20108;-72
2021/12/02 12:26:39;;;;;;;19.25;2.13;;;2.60;99.90;;;;;;5074562;28;20048;-72
2021/12/02 12:29:05;;;;;;;11.43;2.13;;;2.80;99.90;;;;;;5056746;28;20115;-71
2021/12/02 12:31:44;;;;;;;8.13;1.90;;;3.10;99.90;;;;;;5074757;28;20500;-71
2021/12/02 12:37:46;;;;;;;16.90;1.90;;;3.50;99.90;;;;;;5031354;28;20068;-71
2021/12/02 12:40:17;;;;;;;11.55;1.67;;;3.70;99.90;;;;;;5074379;28;20020;-72
2021/12/02 12:42:56;;;;;;;11.85;2.03;;;3.70;99.90;;;;;;5074424;28;20029;-72
2021/12/02 12:45:29;;;;;;;6.03;1.30;;;3.60;99.90;;;;;;5074911;28;20491;-72
2021/12/02 12:47:58;;;;;;;8.27;2.03;;;3.60;99.90;;;;;;5073884;28;20028;-72
2021/12/02 12:50:36;;;;;;;9.43;1.48;;;3.60;99.90;;;;;;5074344;28;20160;-72
2021/12/02 12:53:04;;;;;;;18.38;2.78;;;3.60;99.90;;;;;;5056515;28;20433;-72
2021/12/02 12:55:41;;;;;;;7.78;1.63;;;3.60;99.90;;;;;;5073814;28;20035;-72
2021/12/02 12:58:30;;;;;;;7.13;1.10;;;3.70;99.90;;;;;;5073722;28;20064;-72
2021/12/02 13:00:59;;;;;;;14.25;2.20;;;4.00;99.90;;;;;;5073091;28;20021;-72
2021/12/02 13:03:44;;;;;;;13.55;1.85;;;4.10;99.90;;;;;;5072794;28;20478;-72
2021/12/02 13:06:33;;;;;;;14.93;1.60;;;3.50;99.90;;;;;;5059841;28;20012;-72
2021/12/02 13:09:05;;;;;;;6.07;1.50;;;3.30;99.90;;;;;;5073904;28;20028;-72
2021/12/02 13:11:33;;;;;;;8.95;1.65;;;3.10;99.90;;;;;;5055552;28;20024;-72
2021/12/02 13:14:02;;;;;;;11.85;1.73;;;3.60;99.90;;;;;;5073927;28;20025;-72
2021/12/02 13:16:34;;;;;;;7.93;0.95;;;4.30;99.90;;;;;;5073698;28;20032;-72
2021/12/02 13:19:12;;;;;;;8.13;1.63;;;4.80;99.90;;;;;;5070580;28;20024;-72
2021/12/02 13:21:39;;;;;;;9.40;1.40;;;5.10;99.90;;;;;;5045150;28;20044;-72
2021/12/02 13:24:10;;;;;;;13.00;1.75;;;5.20;99.90;;;;;;5073041;28;20028;-75